createdAt,value
2023-02-08T00:00:08.535Z,28.02
2023-02-08T00:02:46.267Z,26.65
2023-02-08T00:05:21.637Z,27.83
2023-02-08T00:07:56.646Z,30.77
2023-02-08T00:10:36.750Z,29.02
2023-02-08T00:13:11.013Z,27.85
2023-02-08T00:15:48.820Z,31.25
2023-02-08T00:18:26.573Z,32.60
2023-02-08T00:21:03.602Z,31.05
2023-02-08T00:23:37.421Z,38.28
2023-02-08T00:26:20.993Z,37.95
2023-02-08T00:28:59.238Z,37.50
2023-02-08T00:31:36.242Z,38.83
2023-02-08T00:34:17.343Z,39.40
2023-02-08T00:36:57.710Z,41.20
2023-02-08T00:39:35.033Z,39.45
2023-02-08T00:42:24.287Z,45.45
2023-02-08T00:45:00.733Z,41.40
2023-02-08T00:47:36.694Z,44.65
2023-02-08T00:50:20.522Z,41.10
2023-02-08T00:53:07.475Z,39.90
2023-02-08T00:55:48.449Z,42.65
2023-02-08T00:58:30.091Z,40.28
2023-02-08T01:01:35.995Z,43.70
2023-02-08T01:04:37.410Z,44.42
2023-02-08T01:07:19.105Z,41.13
2023-02-08T01:10:20.297Z,41.38
2023-02-08T01:12:59.115Z,43.17
2023-02-08T01:15:36.480Z,43.45
2023-02-08T01:18:11.197Z,44.00
2023-02-08T01:23:40.929Z,37.88
2023-02-08T01:26:35.718Z,42.03
2023-02-08T01:29:27.133Z,40.38
2023-02-08T01:32:14.186Z,38.50
2023-02-08T01:34:48.184Z,41.65
2023-02-08T01:37:30.233Z,38.75
2023-02-08T01:40:08.361Z,41.85
2023-02-08T01:42:58.751Z,45.25
2023-02-08T01:45:35.445Z,42.85
2023-02-08T01:48:24.005Z,43.10
2023-02-08T01:51:02.622Z,42.40
2023-02-08T01:53:52.615Z,38.30
2023-02-08T01:56:35.892Z,39.28
2023-02-08T01:59:36.345Z,39.08
2023-02-08T02:02:23.019Z,39.38
2023-02-08T02:05:06.005Z,42.38
2023-02-08T02:08:08.619Z,39.72
2023-02-08T02:10:49.377Z,38.20
2023-02-08T02:13:28.527Z,39.50
2023-02-08T02:16:10.618Z,38.85
2023-02-08T02:18:53.092Z,32.40
2023-02-08T02:22:15.538Z,31.65
2023-02-08T02:25:23.987Z,34.20
2023-02-08T02:28:26.371Z,36.53
2023-02-08T02:32:01.284Z,36.65
2023-02-08T02:34:43.724Z,34.17
2023-02-08T02:37:30.613Z,29.05
2023-02-08T02:40:15.183Z,32.88
2023-02-08T02:43:18.230Z,28.77
2023-02-08T02:46:17.169Z,29.30
2023-02-08T02:49:15.140Z,29.98
2023-02-08T02:52:22.758Z,27.77
2023-02-08T02:55:08.502Z,28.45
2023-02-08T02:57:50.947Z,24.02
2023-02-08T03:00:28.457Z,25.60
2023-02-08T03:03:24.160Z,29.73
2023-02-08T03:06:11.663Z,25.00
2023-02-08T03:09:16.933Z,27.95
2023-02-08T03:12:04.556Z,21.27
2023-02-08T03:15:00.349Z,23.25
2023-02-08T03:18:05.252Z,22.60
2023-02-08T03:20:48.007Z,21.40
2023-02-08T03:23:45.132Z,23.77
2023-02-08T03:26:29.530Z,20.10
2023-02-08T03:29:20.626Z,19.85
2023-02-08T03:32:04.513Z,21.17
2023-02-08T03:34:50.597Z,20.02
2023-02-08T03:37:29.474Z,20.10
2023-02-08T03:40:10.356Z,21.05
2023-02-08T03:45:48.165Z,19.40
2023-02-08T03:48:29.421Z,18.15
2023-02-08T03:51:07.714Z,20.63
2023-02-08T03:53:59.272Z,19.92
2023-02-08T03:56:50.984Z,18.77
2023-02-08T04:02:28.721Z,18.88
2023-02-08T04:05:15.445Z,18.13
2023-02-08T04:07:54.072Z,19.33
2023-02-08T04:10:32.188Z,19.83
2023-02-08T04:13:17.006Z,17.90
2023-02-08T04:15:55.275Z,18.88
2023-02-08T04:18:29.194Z,18.00
2023-02-08T04:24:09.981Z,18.80
2023-02-08T04:26:55.130Z,18.88
2023-02-08T04:29:40.762Z,17.92
2023-02-08T04:32:19.855Z,20.67
2023-02-08T04:35:04.627Z,19.60
2023-02-08T04:37:55.441Z,18.52
2023-02-08T04:40:42.140Z,18.42
2023-02-08T04:43:20.385Z,21.20
2023-02-08T04:46:18.927Z,19.38
2023-02-08T04:49:00.871Z,19.15
2023-02-08T04:51:51.054Z,21.50
2023-02-08T04:54:39.888Z,18.90
2023-02-08T04:57:17.771Z,17.45
2023-02-08T05:00:18.702Z,17.55
2023-02-08T05:03:02.774Z,16.58
2023-02-08T05:05:45.294Z,18.70
2023-02-08T05:08:26.538Z,18.13
2023-02-08T05:11:06.830Z,18.48
2023-02-08T05:13:45.848Z,17.75
2023-02-08T05:16:25.584Z,17.67
2023-02-08T05:19:28.426Z,18.85
2023-02-08T05:22:15.229Z,18.13
2023-02-08T05:24:50.599Z,18.33
2023-02-08T05:27:28.975Z,20.20
2023-02-08T05:30:10.400Z,19.50
2023-02-08T05:32:59.077Z,18.27
2023-02-08T05:35:45.010Z,17.70
2023-02-08T05:38:25.246Z,17.70
2023-02-08T05:41:10.331Z,17.92
2023-02-08T05:43:52.497Z,19.95
2023-02-08T05:46:43.154Z,19.60
2023-02-08T05:49:28.537Z,18.95
2023-02-08T05:52:06.897Z,20.25
2023-02-08T05:54:45.555Z,20.60
2023-02-08T05:57:25.593Z,18.85
2023-02-08T06:05:48.001Z,18.15
2023-02-08T06:08:28.974Z,18.67
2023-02-08T06:11:15.418Z,22.35
2023-02-08T06:13:53.008Z,19.55
2023-02-08T06:16:33.478Z,18.92
2023-02-08T06:19:18.812Z,19.48
2023-02-08T06:22:00.137Z,22.08
2023-02-08T06:24:44.100Z,22.88
2023-02-08T06:27:35.440Z,17.90
2023-02-08T06:30:10.983Z,18.75
2023-02-08T06:33:11.018Z,20.02
2023-02-08T06:35:52.170Z,18.05
2023-02-08T06:38:26.809Z,18.60
2023-02-08T06:41:56.802Z,21.45
2023-02-08T06:44:34.885Z,19.17
2023-02-08T06:47:14.913Z,19.98
2023-02-08T06:49:51.689Z,18.23
2023-02-08T06:52:52.323Z,22.83
2023-02-08T06:58:25.563Z,17.02
2023-02-08T07:04:25.505Z,19.33
2023-02-08T07:07:03.650Z,21.27
2023-02-08T07:09:58.792Z,21.67
2023-02-08T07:12:33.121Z,20.17
2023-02-08T07:15:10.409Z,19.60
2023-02-08T07:17:46.807Z,19.45
2023-02-08T07:20:18.674Z,18.50
2023-02-08T07:22:49.541Z,21.73
2023-02-08T07:25:21.523Z,20.20
2023-02-08T07:27:53.998Z,19.70
2023-02-08T07:30:33.702Z,19.02
2023-02-08T07:33:12.936Z,20.73
2023-02-08T07:35:53.520Z,20.23
2023-02-08T07:38:26.189Z,20.65
2023-02-08T07:41:06.173Z,20.77
2023-02-08T07:43:41.446Z,19.77
2023-02-08T07:46:18.161Z,20.10
2023-02-08T07:49:16.180Z,21.48
2023-02-08T07:52:09.072Z,21.65
2023-02-08T07:57:57.919Z,17.75
2023-02-08T08:00:32.294Z,19.08
2023-02-08T08:03:12.350Z,17.00
2023-02-08T08:05:49.928Z,19.95
2023-02-08T08:08:22.608Z,20.42
2023-02-08T08:10:54.492Z,19.45
2023-02-08T08:13:26.283Z,18.30
2023-02-08T08:16:01.923Z,18.63
2023-02-08T08:18:35.752Z,23.17
2023-02-08T08:21:10.060Z,18.55
2023-02-08T08:23:43.538Z,19.73
2023-02-08T08:26:28.429Z,17.00
2023-02-08T08:29:00.043Z,20.95
2023-02-08T08:31:31.347Z,21.85
2023-02-08T08:34:02.438Z,18.88
2023-02-08T08:36:38.810Z,19.17
2023-02-08T08:39:13.027Z,20.05
2023-02-08T08:41:44.736Z,23.08
2023-02-08T08:44:15.388Z,17.63
2023-02-08T08:46:46.676Z,19.45
2023-02-08T08:49:18.604Z,18.85
2023-02-08T08:51:55.593Z,18.33
2023-02-08T08:54:27.045Z,22.15
2023-02-08T08:56:58.941Z,19.83
2023-02-08T08:59:30.910Z,24.13
2023-02-08T09:02:02.341Z,24.10
2023-02-08T09:04:37.225Z,22.80
2023-02-08T09:07:13.457Z,20.85
2023-02-08T09:09:48.749Z,21.60
2023-02-08T09:12:20.113Z,21.10
2023-02-08T09:14:51.373Z,21.48
2023-02-08T09:17:23.129Z,24.55
2023-02-08T09:19:54.732Z,23.73
2023-02-08T09:22:29.642Z,22.52
2023-02-08T09:25:04.695Z,24.20
2023-02-08T09:27:36.927Z,23.40
2023-02-08T09:30:13.259Z,24.40
2023-02-08T09:32:45.467Z,21.67
2023-02-08T09:35:16.775Z,23.83
2023-02-08T09:37:55.048Z,26.42
2023-02-08T09:40:34.225Z,24.08
2023-02-08T09:43:12.400Z,23.38
2023-02-08T09:46:02.058Z,21.85
2023-02-08T09:48:38.847Z,21.83
2023-02-08T09:51:18.188Z,23.02
2023-02-08T09:54:03.877Z,24.48
2023-02-08T09:56:43.511Z,23.42
2023-02-08T09:59:27.396Z,22.80
2023-02-08T10:02:06.802Z,22.42
2023-02-08T10:04:47.941Z,22.85
2023-02-08T10:07:18.184Z,22.15
2023-02-08T10:09:50.425Z,26.30
2023-02-08T10:12:30.890Z,24.13
2023-02-08T10:15:16.821Z,26.88
2023-02-08T10:18:08.668Z,23.15
2023-02-08T10:20:52.458Z,21.65
2023-02-08T10:23:36.400Z,23.48
2023-02-08T10:26:16.995Z,27.00
2023-02-08T10:29:07.972Z,25.02
2023-02-08T10:32:00.294Z,22.27
2023-02-08T10:34:42.956Z,23.77
2023-02-08T10:37:18.521Z,25.33
2023-02-08T10:39:49.484Z,26.38
2023-02-08T10:42:26.452Z,27.08
2023-02-08T10:45:22.523Z,27.95
2023-02-08T10:47:58.373Z,23.40
2023-02-08T10:50:36.517Z,25.55
2023-02-08T10:53:07.502Z,25.75
2023-02-08T10:55:42.124Z,24.00
2023-02-08T10:58:19.204Z,25.55
2023-02-08T11:00:54.149Z,25.95
2023-02-08T11:03:28.671Z,26.67
2023-02-08T11:06:00.494Z,25.48
2023-02-08T11:08:35.967Z,25.55
2023-02-08T11:11:09.368Z,25.42
2023-02-08T11:13:42.929Z,24.17
2023-02-08T11:16:15.271Z,22.00
2023-02-08T11:18:51.928Z,25.45
2023-02-08T11:21:30.044Z,21.63
2023-02-08T11:24:02.936Z,24.67
2023-02-08T11:26:39.984Z,24.95
2023-02-08T11:29:18.233Z,24.88
2023-02-08T11:32:01.185Z,24.65
2023-02-08T11:34:33.250Z,25.13
2023-02-08T11:37:15.853Z,27.38
2023-02-08T11:39:52.087Z,22.00
2023-02-08T11:42:25.800Z,21.02
2023-02-08T11:45:00.422Z,29.35
2023-02-08T11:47:33.971Z,22.25
2023-02-08T11:50:06.794Z,25.23
2023-02-08T11:52:39.934Z,23.55
2023-02-08T11:55:26.692Z,21.58
2023-02-08T11:58:00.509Z,23.02
2023-02-08T12:00:35.924Z,22.77
2023-02-08T12:03:15.513Z,21.80
2023-02-08T12:05:57.472Z,21.58
2023-02-08T12:08:35.335Z,23.30
2023-02-08T12:11:18.635Z,22.33
2023-02-08T12:14:22.871Z,23.23
2023-02-08T12:17:09.485Z,25.33
2023-02-08T12:20:12.538Z,22.83
2023-02-08T12:22:52.415Z,24.17
2023-02-08T12:25:32.025Z,24.63
2023-02-08T12:28:09.251Z,22.75
2023-02-08T12:30:47.038Z,23.50
2023-02-08T12:33:49.092Z,21.15
2023-02-08T12:36:37.475Z,24.60
2023-02-08T12:39:44.753Z,20.80
2023-02-08T12:42:36.044Z,26.00
2023-02-08T12:45:20.614Z,22.20
2023-02-08T12:48:12.291Z,24.95
2023-02-08T12:50:56.502Z,23.33
2023-02-08T12:53:33.100Z,21.70
2023-02-08T12:56:09.178Z,21.92
2023-02-08T12:58:45.199Z,23.80
2023-02-08T13:01:22.826Z,21.45
2023-02-08T13:04:00.556Z,22.83
2023-02-08T13:06:41.184Z,23.13
2023-02-08T13:09:20.809Z,25.38
2023-02-08T13:11:56.439Z,22.13
2023-02-08T13:14:34.401Z,25.63
2023-02-08T13:17:16.326Z,23.23
2023-02-08T13:20:00.236Z,22.58
2023-02-08T13:22:37.696Z,23.13
2023-02-08T13:25:20.032Z,21.52
2023-02-08T13:27:51.997Z,24.25
2023-02-08T13:30:24.581Z,23.05
2023-02-08T13:33:00.973Z,23.88
2023-02-08T13:35:33.496Z,23.85
2023-02-08T13:38:09.491Z,21.13
2023-02-08T13:40:41.763Z,22.58
2023-02-08T13:43:35.453Z,24.40
2023-02-08T13:46:09.050Z,23.38
2023-02-08T13:48:51.746Z,26.02
2023-02-08T13:51:55.351Z,25.00
2023-02-08T13:54:27.302Z,23.80
2023-02-08T13:56:57.479Z,24.13
2023-02-08T13:59:36.112Z,23.40
2023-02-08T14:02:27.899Z,22.15
2023-02-08T14:05:54.582Z,25.90
2023-02-08T14:08:30.226Z,24.08
2023-02-08T14:11:14.122Z,22.60
2023-02-08T14:13:53.178Z,25.80
2023-02-08T14:16:33.673Z,25.88
2023-02-08T14:19:06.383Z,23.15
2023-02-08T14:21:41.815Z,21.98
2023-02-08T14:24:24.492Z,22.77
2023-02-08T14:27:10.579Z,22.88
2023-02-08T14:29:41.410Z,23.00
2023-02-08T14:32:23.567Z,22.75
2023-02-08T14:35:04.588Z,23.50
2023-02-08T14:37:36.143Z,23.42
2023-02-08T14:40:35.464Z,21.45
2023-02-08T14:43:33.073Z,24.27
2023-02-08T14:46:44.748Z,25.02
2023-02-08T14:49:17.828Z,21.85
2023-02-08T14:51:53.721Z,21.95
2023-02-08T14:54:29.561Z,21.33
2023-02-08T14:57:03.596Z,21.15
2023-02-08T14:59:39.341Z,19.73
2023-02-08T15:02:22.957Z,20.77
2023-02-08T15:04:54.334Z,26.02
2023-02-08T15:07:33.768Z,20.65
2023-02-08T15:10:08.798Z,21.65
2023-02-08T15:12:42.912Z,22.50
2023-02-08T15:15:28.900Z,23.23
2023-02-08T15:18:00.795Z,19.10
2023-02-08T15:20:38.366Z,21.80
2023-02-08T15:23:20.152Z,22.88
2023-02-08T15:26:02.486Z,21.50
2023-02-08T15:28:36.742Z,21.48
2023-02-08T15:31:17.748Z,21.10
2023-02-08T15:33:51.392Z,22.85
2023-02-08T15:36:28.305Z,18.58
2023-02-08T15:39:04.475Z,22.33
2023-02-08T15:41:37.195Z,20.33
2023-02-08T15:44:24.147Z,21.65
2023-02-08T15:47:00.717Z,23.50
2023-02-08T15:49:37.069Z,21.27
2023-02-08T15:52:10.079Z,22.45
2023-02-08T15:54:43.233Z,21.50
2023-02-08T15:57:25.728Z,21.15
2023-02-08T15:59:57.104Z,21.65
2023-02-08T16:02:42.925Z,19.10
2023-02-08T16:05:27.390Z,22.30
2023-02-08T16:07:59.601Z,18.15
2023-02-08T16:10:37.689Z,20.33
2023-02-08T16:13:16.165Z,21.45
2023-02-08T16:16:08.742Z,21.55
2023-02-08T16:18:47.420Z,21.35
2023-02-08T16:21:29.772Z,20.13
2023-02-08T16:24:02.788Z,19.90
2023-02-08T16:26:38.619Z,20.42
2023-02-08T16:29:20.310Z,20.90
2023-02-08T16:31:59.211Z,20.60
2023-02-08T16:34:37.202Z,20.75
2023-02-08T16:37:20.050Z,18.00
2023-02-08T16:39:58.384Z,19.10
2023-02-08T16:42:41.606Z,21.45
2023-02-08T16:45:23.243Z,20.23
2023-02-08T16:47:56.891Z,16.45
2023-02-08T16:50:31.870Z,19.30
2023-02-08T16:53:07.583Z,22.95
2023-02-08T16:55:40.545Z,20.20
2023-02-08T16:58:18.094Z,19.92
2023-02-08T17:00:50.541Z,19.05
2023-02-08T17:03:27.512Z,20.70
2023-02-08T17:06:04.782Z,20.40
2023-02-08T17:09:37.135Z,18.95
2023-02-08T17:12:22.710Z,22.13
2023-02-08T17:14:55.630Z,19.67
2023-02-08T17:17:28.614Z,18.55
2023-02-08T17:20:02.957Z,20.20
2023-02-08T17:22:36.347Z,21.98
2023-02-08T17:25:09.305Z,19.75
2023-02-08T17:27:41.743Z,18.88
2023-02-08T17:30:22.639Z,19.13
2023-02-08T17:32:54.037Z,19.52
2023-02-08T17:35:30.074Z,20.70
2023-02-08T17:38:06.059Z,20.60
2023-02-08T17:40:40.579Z,19.38
2023-02-08T17:43:13.913Z,17.25
2023-02-08T17:45:47.870Z,17.70
2023-02-08T17:48:25.955Z,20.13
2023-02-08T17:50:58.974Z,19.20
2023-02-08T17:53:33.484Z,20.02
2023-02-08T17:56:09.999Z,19.10
2023-02-08T17:58:42.059Z,16.65
2023-02-08T18:01:20.254Z,18.90
2023-02-08T18:03:52.543Z,19.30
2023-02-08T18:06:25.949Z,19.42
2023-02-08T18:11:48.489Z,18.92
2023-02-08T18:14:21.438Z,19.40
2023-02-08T18:16:52.902Z,17.92
2023-02-08T18:19:29.056Z,19.95
2023-02-08T18:22:01.778Z,18.75
2023-02-08T18:24:35.831Z,18.48
2023-02-08T18:27:10.529Z,18.63
2023-02-08T18:29:42.846Z,19.25
2023-02-08T18:32:14.169Z,18.75
2023-02-08T18:34:46.154Z,17.38
2023-02-08T18:37:18.228Z,18.67
2023-02-08T18:39:52.803Z,18.58
2023-02-08T18:42:23.580Z,18.55
2023-02-08T18:44:56.788Z,18.60
2023-02-08T18:47:27.571Z,17.38
2023-02-08T18:50:00.908Z,16.50
2023-02-08T18:52:41.534Z,19.25
2023-02-08T18:55:16.102Z,17.58
2023-02-08T18:57:50.524Z,18.02
2023-02-08T19:00:22.386Z,19.60
2023-02-08T19:02:53.127Z,16.60
2023-02-08T19:05:26.186Z,18.42
2023-02-08T19:07:58.065Z,17.45
2023-02-08T19:10:31.728Z,18.15
2023-02-08T19:13:02.779Z,16.92
2023-02-08T19:15:34.641Z,18.40
2023-02-08T19:18:12.048Z,17.63
2023-02-08T19:20:42.337Z,19.23
2023-02-08T19:23:14.803Z,16.63
2023-02-08T19:25:47.806Z,17.27
2023-02-08T19:28:18.712Z,16.88
2023-02-08T19:30:49.588Z,16.85
2023-02-08T19:33:20.143Z,17.35
2023-02-08T19:35:53.397Z,17.90
2023-02-08T19:38:26.428Z,19.02
2023-02-08T19:40:59.888Z,16.60
2023-02-08T19:43:31.808Z,18.85
2023-02-08T19:46:04.065Z,16.15
2023-02-08T19:48:34.801Z,18.05
2023-02-08T19:51:06.398Z,18.60
2023-02-08T19:53:46.565Z,18.23
2023-02-08T19:56:21.376Z,19.52
2023-02-08T19:58:55.272Z,18.88
2023-02-08T20:01:26.750Z,17.55
2023-02-08T20:03:57.293Z,20.38
2023-02-08T20:06:33.024Z,17.85
2023-02-08T20:09:04.657Z,18.98
2023-02-08T20:11:55.843Z,19.67
2023-02-08T20:14:29.277Z,17.90
2023-02-08T20:17:00.853Z,17.85
2023-02-08T20:19:31.681Z,16.65
2023-02-08T20:22:02.896Z,16.33
2023-02-08T20:24:38.387Z,20.13
2023-02-08T20:27:11.951Z,16.77
2023-02-08T20:29:44.722Z,19.33
2023-02-08T20:32:15.468Z,17.70
2023-02-08T20:34:59.101Z,17.80
2023-02-08T20:37:33.903Z,15.40
2023-02-08T20:40:05.162Z,18.25
2023-02-08T20:42:38.963Z,18.73
2023-02-08T20:45:15.010Z,14.07
2023-02-08T20:47:47.220Z,16.25
2023-02-08T20:50:19.502Z,17.88
2023-02-08T20:52:51.170Z,16.48
2023-02-08T20:55:21.909Z,17.58
2023-02-08T20:57:54.031Z,14.05
2023-02-08T21:00:40.223Z,15.23
2023-02-08T21:03:12.313Z,15.40
2023-02-08T21:05:44.098Z,14.48
2023-02-08T21:08:16.849Z,14.45
2023-02-08T21:10:50.875Z,17.38
2023-02-08T21:13:51.577Z,16.00
2023-02-08T21:16:22.649Z,15.23
2023-02-08T21:18:54.441Z,15.88
2023-02-08T21:21:30.751Z,16.33
2023-02-08T21:24:03.811Z,16.27
2023-02-08T21:26:38.282Z,15.18
2023-02-08T21:29:15.809Z,14.38
2023-02-08T21:31:47.772Z,14.43
2023-02-08T21:34:24.861Z,14.48
2023-02-08T21:37:00.723Z,14.80
2023-02-08T21:42:23.533Z,16.98
2023-02-08T21:45:00.759Z,15.65
2023-02-08T21:47:37.427Z,18.65
2023-02-08T21:50:28.050Z,14.13
2023-02-08T21:53:18.138Z,14.27
2023-02-08T21:56:04.239Z,15.25
2023-02-08T21:58:42.735Z,15.20
2023-02-08T22:01:20.676Z,15.90
2023-02-08T22:03:56.469Z,14.13
2023-02-08T22:06:45.547Z,16.67
2023-02-08T22:09:17.282Z,13.50
2023-02-08T22:11:52.233Z,14.68
2023-02-08T22:14:29.239Z,13.18
2023-02-08T22:17:25.453Z,14.90
2023-02-08T22:20:10.889Z,14.88
2023-02-08T22:22:48.183Z,14.23
2023-02-08T22:25:22.625Z,14.55
2023-02-08T22:27:56.334Z,14.50
2023-02-08T22:30:31.921Z,15.32
2023-02-08T22:33:09.624Z,13.20
2023-02-08T22:35:44.589Z,14.75
2023-02-08T22:38:16.197Z,14.07
2023-02-08T22:40:49.161Z,15.13
2023-02-08T22:43:55.353Z,14.38
2023-02-08T22:46:45.251Z,13.02
2023-02-08T22:49:28.373Z,12.60
2023-02-08T22:52:08.648Z,12.25
2023-02-08T22:54:43.946Z,13.25
2023-02-08T22:57:18.797Z,13.43
2023-02-08T23:00:01.088Z,12.55
2023-02-08T23:02:33.782Z,13.80
2023-02-08T23:05:10.893Z,15.20
2023-02-08T23:07:45.038Z,14.82
2023-02-08T23:10:17.956Z,12.98
2023-02-08T23:12:50.913Z,13.38
2023-02-08T23:15:22.221Z,13.57
2023-02-08T23:17:58.082Z,14.13
2023-02-08T23:20:36.274Z,13.80
2023-02-08T23:23:12.692Z,16.15
2023-02-08T23:25:45.028Z,14.07
2023-02-08T23:28:18.202Z,12.40
2023-02-08T23:30:57.110Z,14.30
2023-02-08T23:33:30.557Z,12.85
2023-02-08T23:36:07.649Z,13.88
2023-02-08T23:38:38.723Z,11.70
2023-02-08T23:41:11.397Z,11.77
2023-02-08T23:43:44.745Z,12.43
2023-02-08T23:46:19.818Z,15.70
2023-02-08T23:48:51.523Z,13.40
2023-02-08T23:51:35.496Z,14.02
2023-02-08T23:54:09.628Z,14.25
2023-02-08T23:56:46.247Z,13.52
2023-02-08T23:59:22.389Z,11.52
